Ayer, Massachusetts
Current Conditions -  °F | °C
As of 7:52 AM on Wednesday 22 Oct 2014 (Local Time) from KFIT Reporting Station
Light Rain Light Rain  
Wind Chill: 51°   Ceiling: 800
Heat Index: 51°   Visibility: 4mi
Dew Point: 47°   Wind: 9mph
Humidity: 86%   Direction: 10°N
Pressure: 30.05"   Gusts: 21mph
Location:  42.56°N, 71.58°W
Report Text: KFIT 221152Z AUTO 01008G18KT 4SM -RA BR OVC008 11/08 A3005 RMK AO2 SLP176 P0003 60006 70006 T01060083 10106 20100 53009
Loading
Personal Weather Stations






























Interactive Weather Map
Tropical Storm Tracking
New forecast layout! Learn more

10-Day Weather Forecast

Advertisements
Track Severe Weather on mobile